LPPRLPMA

Guest
Details From LPPR - Porto
To LPMA - Madeira
Flight Number -
Tags decoded
Created
Modified
Stats Distance 664 nm / 1,229 km
Max Altitude 0 ft / 0 m
Waypoints 7
Social Downloads 31
Likes 0
Share VATSIM

Download

Looking for another format? Having issues loading an existing format? Contact us
Advertisement - Login to hide

Notes

Requested: LPPR DEKUS NARTA GALPA RULET SNT LPMA

Route

LPPR DEKUS NARTA GALPA RULET SNT LPMA

ID Type Via Altitude Latitude Longitude Leg Dist Tot Dist Heading (true) Name
O LPPR APT - 0 ft / 0 m 41.24793˚ -8.68122˚ - 0 nm - Porto
DEKUS FIX - 0 ft / 0 m 38.01528˚ -10.00000˚ 203 nm 203 nm 198° / 197° -
NARTA FIX - 0 ft / 0 m 36.05639˚ -12.55806˚ 169 nm 373 nm 227° / 225° -
GALPA FIX - 0 ft / 0 m 34.39806˚ -14.73028˚ 145 nm 519 nm 228° / 226° -
RULET FIX - 0 ft / 0 m 34.25167˚ -14.91556˚ 12 nm 531 nm 226° / 226° -
SNT VOR - 0 ft / 0 m 33.09028˚ -16.35056˚ 100 nm 632 nm 226° / 225° PORTO SANTO VOR-DME
O LPMA APT - 0 ft / 0 m 32.69770˚ -16.77445˚ 31 nm 663 nm 222° / 222° Madeira

Altitude Profile

Advertisement - Login to hide

Weather


0- 5 10 15 20 25 30 35+ Temperature / ° C

Clouds and Precipitation
Forecast for 2017-12-16 12:00 UTC. Updated 6 minutes ago

Ground ~20,000 ft ~40,000 ft Winds

LPPR

Details ICAO LPPR (OPO)
Name Porto
Region Portugal
Timezone Europe/Lisbon (UTC+0.0)
Stats Elevation 228 ft / 69 m (AMSL)
Location 41.247932° -8.681221°
Runways 1
Magnetic Variation 2.339° W

METAR

LPPR 160900Z 10003KT 030V140 CAVOK 04/04 Q1025

Decode

TAF

TAF LPPR 160500Z 1606/1706 VRB03KT CAVOK BECMG 1611/1613 36010KT BECMG 1622/1624 06005KT

Decode

Departure Runways

ID Width Length Bearing (true) Bearing (mag) Surface Threshold Offset Overrun Length
17 148 ft / 45 m 11,451 ft / 3,490 m 168.88° 171.22° Asphalt 984 ft / 300 m 220 ft / 67 m
35 148 ft / 45 m 11,451 ft / 3,490 m 348.89° 351.23° Asphalt 492 ft / 150 m 370 ft / 113 m

LPMA

Details ICAO LPMA (FNC)
Name Madeira
Region Portugal
Timezone Atlantic/Madeira (UTC+0.0)
Stats Elevation 192 ft / 59 m (AMSL)
Location 32.697704° -16.774449°
Runways 1
Magnetic Variation 4.981° W

METAR

LPMA 160900Z 35012KT 310V020 9999 BKN013 FEW015TCU 19/15 Q1023

Decode

TAF

TAF LPMA 160500Z 1606/1706 35010KT 9999 SCT013 BKN030 TEMPO 1606/1620 6000 -RA BKN013 BECMG 1613/1615 04015KT

Decode

Destination Runways

ID Width Length Bearing (true) Bearing (mag) Surface Threshold Offset Overrun Length
05 141 ft / 43 m 8,683 ft / 2,647 m 42.98° 47.96° Asphalt 472 ft / 144 m 0 ft / 0 m
23 141 ft / 43 m 8,683 ft / 2,647 m 222.99° 227.97° Asphalt 466 ft / 142 m 0 ft / 0 m

Popular Alternatives